sensor_id;sensor_type;location;lat;lon;timestamp;pressure;altitude;pressure_sealevel;temperature;humidity
70815;BME280;58428;49.478;10.986;2022-12-24T00:00:33;97713.03;;;11.33;100.00
70815;BME280;58428;49.478;10.986;2022-12-24T00:03:00;97718.56;;;11.24;100.00
70815;BME280;58428;49.478;10.986;2022-12-24T00:05:25;97707.41;;;11.26;100.00
70815;BME280;58428;49.478;10.986;2022-12-24T00:07:51;97719.38;;;11.25;100.00
70815;BME280;58428;49.478;10.986;2022-12-24T00:10:16;97721.56;;;11.19;100.00
70815;BME280;58428;49.478;10.986;2022-12-24T00:12:42;97724.50;;;11.14;100.00
70815;BME280;58428;49.478;10.986;2022-12-24T00:15:08;97718.91;;;11.07;100.00
70815;BME280;58428;49.478;10.986;2022-12-24T00:17:37;97727.47;;;11.09;100.00
70815;BME280;58428;49.478;10.986;2022-12-24T00:20:03;97724.66;;;11.06;100.00
70815;BME280;58428;49.478;10.986;2022-12-24T00:22:29;97738.88;;;11.03;100.00
70815;BME280;58428;49.478;10.986;2022-12-24T00:24:54;97740.13;;;11.05;100.00
70815;BME280;58428;49.478;10.986;2022-12-24T00:27:21;97729.72;;;11.07;100.00
70815;BME280;58428;49.478;10.986;2022-12-24T00:29:48;97733.22;;;11.08;100.00
70815;BME280;58428;49.478;10.986;2022-12-24T00:32:13;97742.13;;;11.08;100.00
70815;BME280;58428;49.478;10.986;2022-12-24T00:34:39;97739.84;;;11.10;100.00
70815;BME280;58428;49.478;10.986;2022-12-24T00:37:06;97748.31;;;11.09;100.00
70815;BME280;58428;49.478;10.986;2022-12-24T00:39:33;97749.22;;;11.13;100.00
70815;BME280;58428;49.478;10.986;2022-12-24T00:41:59;97749.31;;;11.16;100.00
70815;BME280;58428;49.478;10.986;2022-12-24T00:44:25;97748.53;;;11.16;100.00
70815;BME280;58428;49.478;10.986;2022-12-24T00:46:53;97749.31;;;11.16;100.00
70815;BME280;58428;49.478;10.986;2022-12-24T00:49:19;97745.59;;;11.21;100.00
70815;BME280;58428;49.478;10.986;2022-12-24T00:51:44;97755.59;;;11.20;100.00
70815;BME280;58428;49.478;10.986;2022-12-24T00:54:10;97757.19;;;11.21;100.00
70815;BME280;58428;49.478;10.986;2022-12-24T00:56:39;97758.56;;;11.15;100.00
70815;BME280;58428;49.478;10.986;2022-12-24T00:59:07;97755.31;;;11.10;100.00
70815;BME280;58428;49.478;10.986;2022-12-24T01:01:33;97752.63;;;11.10;100.00
70815;BME280;58428;49.478;10.986;2022-12-24T01:04:01;97760.97;;;11.05;100.00
70815;BME280;58428;49.478;10.986;2022-12-24T01:06:49;97773.75;;;10.93;100.00
70815;BME280;58428;49.478;10.986;2022-12-24T01:09:15;97769.16;;;10.81;100.00
70815;BME280;58428;49.478;10.986;2022-12-24T01:11:41;97785.41;;;10.81;100.00
70815;BME280;58428;49.478;10.986;2022-12-24T01:14:08;97781.91;;;10.81;100.00
70815;BME280;58428;49.478;10.986;2022-12-24T01:16:36;97784.84;;;10.76;100.00
70815;BME280;58428;49.478;10.986;2022-12-24T01:19:02;97795.13;;;10.70;100.00
70815;BME280;58428;49.478;10.986;2022-12-24T01:21:34;97804.25;;;10.66;100.00
70815;BME280;58428;49.478;10.986;2022-12-24T01:24:05;97813.28;;;10.58;100.00
70815;BME280;58428;49.478;10.986;2022-12-24T01:26:31;97813.28;;;10.58;100.00
70815;BME280;58428;49.478;10.986;2022-12-24T01:28:56;97811.59;;;10.54;100.00
70815;BME280;58428;49.478;10.986;2022-12-24T01:31:23;97818.94;;;10.53;100.00
70815;BME280;58428;49.478;10.986;2022-12-24T01:33:48;97820.06;;;10.52;100.00
70815;BME280;58428;49.478;10.986;2022-12-24T01:36:14;97824.13;;;10.46;100.00
70815;BME280;58428;49.478;10.986;2022-12-24T01:38:40;97828.28;;;10.44;100.00
70815;BME280;58428;49.478;10.986;2022-12-24T01:41:21;97825.34;;;10.37;100.00
70815;BME280;58428;49.478;10.986;2022-12-24T01:44:28;97827.16;;;10.33;100.00
70815;BME280;58428;49.478;10.986;2022-12-24T01:49:30;97844.41;;;10.28;100.00
70815;BME280;58428;49.478;10.986;2022-12-24T01:52:02;97838.88;;;10.25;100.00
70815;BME280;58428;49.478;10.986;2022-12-24T01:54:38;97840.00;;;10.24;100.00
70815;BME280;58428;49.478;10.986;2022-12-24T01:57:16;97841.91;;;10.24;100.00
70815;BME280;58428;49.478;10.986;2022-12-24T01:59:51;97850.72;;;10.21;100.00
70815;BME280;58428;49.478;10.986;2022-12-24T02:02:18;97847.66;;;10.22;100.00
70815;BME280;58428;49.478;10.986;2022-12-24T02:07:10;97862.75;;;10.23;100.00
70815;BME280;58428;49.478;10.986;2022-12-24T02:09:40;97863.97;;;10.26;100.00
70815;BME280;58428;49.478;10.986;2022-12-24T02:12:06;97865.78;;;10.22;100.00
70815;BME280;58428;49.478;10.986;2022-12-24T02:14:33;97868.50;;;10.22;100.00
70815;BME280;58428;49.478;10.986;2022-12-24T02:29:09;97890.94;;;10.34;100.00
70815;BME280;58428;49.478;10.986;2022-12-24T02:31:47;97898.69;;;10.35;100.00
70815;BME280;58428;49.478;10.986;2022-12-24T02:37:15;97887.66;;;10.40;100.00
70815;BME280;58428;49.478;10.986;2022-12-24T02:39:51;97889.47;;;10.36;100.00
70815;BME280;58428;49.478;10.986;2022-12-24T02:42:23;97896.00;;;10.35;100.00
70815;BME280;58428;49.478;10.986;2022-12-24T02:44:55;97907.81;;;10.31;100.00
70815;BME280;58428;49.478;10.986;2022-12-24T02:47:25;97909.50;;;10.24;100.00
70815;BME280;58428;49.478;10.986;2022-12-24T02:49:52;97914.34;;;10.18;100.00
70815;BME280;58428;49.478;10.986;2022-12-24T02:55:15;97918.25;;;10.09;100.00
70815;BME280;58428;49.478;10.986;2022-12-24T03:00:16;97933.44;;;10.01;100.00
70815;BME280;58428;49.478;10.986;2022-12-24T03:03:16;97932.06;;;9.95;100.00
70815;BME280;58428;49.478;10.986;2022-12-24T03:05:48;97941.63;;;9.93;100.00
70815;BME280;58428;49.478;10.986;2022-12-24T03:08:30;97938.78;;;9.90;100.00
70815;BME280;58428;49.478;10.986;2022-12-24T03:11:11;97954.69;;;9.91;100.00
70815;BME280;58428;49.478;10.986;2022-12-24T03:13:39;97951.50;;;9.89;100.00
70815;BME280;58428;49.478;10.986;2022-12-24T03:16:07;97959.03;;;9.84;100.00
70815;BME280;58428;49.478;10.986;2022-12-24T03:18:41;97964.41;;;9.84;100.00
70815;BME280;58428;49.478;10.986;2022-12-24T03:21:24;97956.66;;;9.82;100.00
70815;BME280;58428;49.478;10.986;2022-12-24T03:23:51;97963.50;;;9.80;100.00
70815;BME280;58428;49.478;10.986;2022-12-24T03:26:17;97963.97;;;9.82;100.00
70815;BME280;58428;49.478;10.986;2022-12-24T03:28:44;97956.19;;;9.80;100.00
70815;BME280;58428;49.478;10.986;2022-12-24T03:31:11;97952.69;;;9.80;100.00
70815;BME280;58428;49.478;10.986;2022-12-24T03:33:38;97953.47;;;9.80;100.00
70815;BME280;58428;49.478;10.986;2022-12-24T03:36:08;97969.69;;;9.80;100.00
70815;BME280;58428;49.478;10.986;2022-12-24T03:38:34;97956.84;;;9.77;100.00
70815;BME280;58428;49.478;10.986;2022-12-24T03:41:00;97963.22;;;9.73;100.00
70815;BME280;58428;49.478;10.986;2022-12-24T03:43:26;97983.59;;;9.70;100.00
70815;BME280;58428;49.478;10.986;2022-12-24T03:45:51;97978.97;;;9.71;100.00
70815;BME280;58428;49.478;10.986;2022-12-24T03:48:17;97985.84;;;9.68;100.00
70815;BME280;58428;49.478;10.986;2022-12-24T03:50:42;98002.84;;;9.69;100.00
70815;BME280;58428;49.478;10.986;2022-12-24T03:53:08;98001.59;;;9.66;100.00
70815;BME280;58428;49.478;10.986;2022-12-24T03:55:34;97998.28;;;9.61;100.00
70815;BME280;58428;49.478;10.986;2022-12-24T03:58:03;98007.72;;;9.55;100.00
70815;BME280;58428;49.478;10.986;2022-12-24T04:00:28;98000.94;;;9.49;100.00
70815;BME280;58428;49.478;10.986;2022-12-24T04:02:55;98004.47;;;9.41;100.00
70815;BME280;58428;49.478;10.986;2022-12-24T04:05:20;98000.84;;;9.37;100.00
70815;BME280;58428;49.478;10.986;2022-12-24T04:07:47;98000.38;;;9.35;100.00
70815;BME280;58428;49.478;10.986;2022-12-24T04:10:15;98001.63;;;9.38;100.00
70815;BME280;58428;49.478;10.986;2022-12-24T04:12:41;98000.38;;;9.35;100.00
70815;BME280;58428;49.478;10.986;2022-12-24T04:15:07;98007.03;;;9.38;100.00
70815;BME280;58428;49.478;10.986;2022-12-24T04:17:36;98017.84;;;9.38;100.00
70815;BME280;58428;49.478;10.986;2022-12-24T04:20:01;98020.84;;;9.36;100.00
70815;BME280;58428;49.478;10.986;2022-12-24T04:22:31;98018.16;;;9.36;100.00
70815;BME280;58428;49.478;10.986;2022-12-24T04:24:58;98018.97;;;9.37;100.00
70815;BME280;58428;49.478;10.986;2022-12-24T04:27:25;98018.63;;;9.38;100.00
70815;BME280;58428;49.478;10.986;2022-12-24T04:29:51;98028.78;;;9.41;100.00
70815;BME280;58428;49.478;10.986;2022-12-24T04:32:17;98028.78;;;9.41;100.00
70815;BME280;58428;49.478;10.986;2022-12-24T04:34:44;98029.84;;;9.49;100.00
70815;BME280;58428;49.478;10.986;2022-12-24T04:37:09;98045.22;;;9.48;100.00
70815;BME280;58428;49.478;10.986;2022-12-24T04:39:36;98053.00;;;9.50;100.00
70815;BME280;58428;49.478;10.986;2022-12-24T04:42:01;98049.22;;;9.51;100.00
70815;BME280;58428;49.478;10.986;2022-12-24T04:44:27;98048.84;;;9.52;100.00
70815;BME280;58428;49.478;10.986;2022-12-24T04:46:52;98051.69;;;9.55;100.00
70815;BME280;58428;49.478;10.986;2022-12-24T04:49:19;98049.16;;;9.59;100.00
70815;BME280;58428;49.478;10.986;2022-12-24T04:51:47;98057.72;;;9.61;100.00
70815;BME280;58428;49.478;10.986;2022-12-24T04:54:14;98057.72;;;9.61;100.00
70815;BME280;58428;49.478;10.986;2022-12-24T04:56:39;98054.09;;;9.57;100.00
70815;BME280;58428;49.478;10.986;2022-12-24T04:59:06;98050.13;;;9.54;100.00
70815;BME280;58428;49.478;10.986;2022-12-24T05:01:32;98050.91;;;9.55;100.00
70815;BME280;58428;49.478;10.986;2022-12-24T05:03:59;98048.69;;;9.57;100.00
70815;BME280;58428;49.478;10.986;2022-12-24T05:06:28;98063.75;;;9.58;100.00
70815;BME280;58428;49.478;10.986;2022-12-24T05:08:55;98066.59;;;9.61;100.00
70815;BME280;58428;49.478;10.986;2022-12-24T05:11:22;98065.81;;;9.61;100.00
70815;BME280;58428;49.478;10.986;2022-12-24T05:13:49;98064.34;;;9.63;100.00
70815;BME280;58428;49.478;10.986;2022-12-24T05:16:17;98072.59;;;9.67;100.00
70815;BME280;58428;49.478;10.986;2022-12-24T05:18:43;98059.09;;;9.67;100.00
70815;BME280;58428;49.478;10.986;2022-12-24T05:21:10;98063.41;;;9.68;100.00
70815;BME280;58428;49.478;10.986;2022-12-24T05:23:36;98068.25;;;9.74;100.00
70815;BME280;58428;49.478;10.986;2022-12-24T05:29:08;98065.81;;;9.81;100.00
70815;BME280;58428;49.478;10.986;2022-12-24T05:31:34;98081.38;;;9.84;100.00
70815;BME280;58428;49.478;10.986;2022-12-24T05:34:00;98078.69;;;9.84;100.00
70815;BME280;58428;49.478;10.986;2022-12-24T05:36:28;98088.25;;;9.82;100.00
70815;BME280;58428;49.478;10.986;2022-12-24T05:38:55;98087.38;;;9.90;100.00
70815;BME280;58428;49.478;10.986;2022-12-24T05:41:21;98083.41;;;9.95;100.00
70815;BME280;58428;49.478;10.986;2022-12-24T05:43:47;98097.22;;;9.94;100.00
70815;BME280;58428;49.478;10.986;2022-12-24T05:46:16;98102.63;;;9.94;100.00
70815;BME280;58428;49.478;10.986;2022-12-24T05:48:45;98109.28;;;9.96;100.00
70815;BME280;58428;49.478;10.986;2022-12-24T05:51:12;98107.41;;;9.97;100.00
70815;BME280;58428;49.478;10.986;2022-12-24T05:53:39;98108.19;;;9.97;100.00
70815;BME280;58428;49.478;10.986;2022-12-24T05:56:10;98101.19;;;9.96;100.00
70815;BME280;58428;49.478;10.986;2022-12-24T05:58:37;98105.47;;;9.97;100.00
70815;BME280;58428;49.478;10.986;2022-12-24T06:01:04;98105.34;;;9.94;100.00
70815;BME280;58428;49.478;10.986;2022-12-24T06:03:34;98109.00;;;9.90;100.00
70815;BME280;58428;49.478;10.986;2022-12-24T06:06:13;98109.97;;;9.93;100.00
70815;BME280;58428;49.478;10.986;2022-12-24T06:08:40;98112.44;;;9.98;100.00
70815;BME280;58428;49.478;10.986;2022-12-24T06:11:10;98114.19;;;10.03;100.00
70815;BME280;58428;49.478;10.986;2022-12-24T06:13:37;98121.16;;;10.04;100.00
70815;BME280;58428;49.478;10.986;2022-12-24T06:16:04;98108.31;;;10.01;100.00
70815;BME280;58428;49.478;10.986;2022-12-24T06:18:35;98114.19;;;10.03;100.00
70815;BME280;58428;49.478;10.986;2022-12-24T06:21:03;98113.72;;;10.01;100.00
70815;BME280;58428;49.478;10.986;2022-12-24T06:23:31;98112.91;;;10.00;100.00
70815;BME280;58428;49.478;10.986;2022-12-24T06:25:58;98118.31;;;10.00;100.00
70815;BME280;58428;49.478;10.986;2022-12-24T06:28:32;98119.03;;;9.89;100.00
70815;BME280;58428;49.478;10.986;2022-12-24T06:30:58;98121.88;;;9.92;100.00
70815;BME280;58428;49.478;10.986;2022-12-24T06:33:26;98128.56;;;9.95;100.00
70815;BME280;58428;49.478;10.986;2022-12-24T06:35:52;98130.78;;;9.93;100.00
70815;BME280;58428;49.478;10.986;2022-12-24T06:38:20;98129.97;;;9.92;100.00
70815;BME280;58428;49.478;10.986;2022-12-24T06:40:48;98122.47;;;9.98;100.00
70815;BME280;58428;49.478;10.986;2022-12-24T06:43:14;98120.44;;;9.95;100.00
70815;BME280;58428;49.478;10.986;2022-12-24T06:45:44;98125.72;;;9.92;100.00
70815;BME280;58428;49.478;10.986;2022-12-24T06:48:10;98125.03;;;9.94;100.00
70815;BME280;58428;49.478;10.986;2022-12-24T06:50:37;98124.25;;;9.94;100.00
70815;BME280;58428;49.478;10.986;2022-12-24T06:53:04;98135.38;;;9.92;100.00
70815;BME280;58428;49.478;10.986;2022-12-24T06:55:31;98142.88;;;9.87;100.00
70815;BME280;58428;49.478;10.986;2022-12-24T06:57:56;98142.84;;;9.95;100.00
70815;BME280;58428;49.478;10.986;2022-12-24T07:00:24;98147.94;;;9.97;100.00
70815;BME280;58428;49.478;10.986;2022-12-24T07:02:50;98144.56;;;10.00;100.00
70815;BME280;58428;49.478;10.986;2022-12-24T07:05:16;98152.03;;;10.03;100.00
70815;BME280;58428;49.478;10.986;2022-12-24T07:07:44;98151.03;;;10.07;100.00
70815;BME280;58428;49.478;10.986;2022-12-24T07:10:13;98161.91;;;9.99;100.00
70815;BME280;58428;49.478;10.986;2022-12-24T07:12:39;98157.94;;;9.96;100.00
70815;BME280;58428;49.478;10.986;2022-12-24T07:15:05;98167.31;;;9.99;100.00
70815;BME280;58428;49.478;10.986;2022-12-24T07:17:35;98170.13;;;10.02;100.00
70815;BME280;58428;49.478;10.986;2022-12-24T07:20:00;98174.16;;;9.96;100.00
70815;BME280;58428;49.478;10.986;2022-12-24T07:22:27;98183.84;;;9.97;100.00
70815;BME280;58428;49.478;10.986;2022-12-24T07:24:53;98191.97;;;9.97;100.00
70815;BME280;58428;49.478;10.986;2022-12-24T07:27:18;98195.28;;;9.94;100.00
70815;BME280;58428;49.478;10.986;2022-12-24T07:29:46;98198.00;;;9.94;100.00
70815;BME280;58428;49.478;10.986;2022-12-24T07:32:12;98212.91;;;10.00;100.00
70815;BME280;58428;49.478;10.986;2022-12-24T07:34:38;98207.19;;;10.02;100.00
70815;BME280;58428;49.478;10.986;2022-12-24T07:37:04;98207.31;;;10.05;100.00
70815;BME280;58428;49.478;10.986;2022-12-24T07:39:33;98207.47;;;10.09;100.00
70815;BME280;58428;49.478;10.986;2022-12-24T07:42:00;98205.84;;;10.16;100.00
70815;BME280;58428;49.478;10.986;2022-12-24T07:44:29;98206.41;;;10.22;100.00
70815;BME280;58428;49.478;10.986;2022-12-24T07:46:56;98207.56;;;10.21;100.00
70815;BME280;58428;49.478;10.986;2022-12-24T07:49:22;98196.91;;;10.16;100.00
70815;BME280;58428;49.478;10.986;2022-12-24T07:51:51;98197.91;;;10.11;100.00
70815;BME280;58428;49.478;10.986;2022-12-24T07:54:17;98202.06;;;10.09;100.00
70815;BME280;58428;49.478;10.986;2022-12-24T07:56:44;98203.94;;;10.08;100.00
70815;BME280;58428;49.478;10.986;2022-12-24T07:59:15;98206.72;;;10.00;100.00
70815;BME280;58428;49.478;10.986;2022-12-24T08:01:41;98209.09;;;10.01;100.00
70815;BME280;58428;49.478;10.986;2022-12-24T08:04:07;98210.66;;;10.02;100.00
70815;BME280;58428;49.478;10.986;2022-12-24T08:06:34;98210.31;;;10.12;100.00
70815;BME280;58428;49.478;10.986;2022-12-24T08:09:08;98215.25;;;10.10;100.00
70815;BME280;58428;49.478;10.986;2022-12-24T08:11:33;98215.19;;;10.19;100.00
70815;BME280;58428;49.478;10.986;2022-12-24T08:13:59;98224.69;;;10.25;100.00
70815;BME280;58428;49.478;10.986;2022-12-24T08:16:25;98225.34;;;10.22;100.00
70815;BME280;58428;49.478;10.986;2022-12-24T08:18:53;98228.97;;;10.26;100.00
70815;BME280;58428;49.478;10.986;2022-12-24T08:21:27;98231.50;;;10.30;100.00
70815;BME280;58428;49.478;10.986;2022-12-24T08:23:55;98238.81;;;10.30;100.00
70815;BME280;58428;49.478;10.986;2022-12-24T08:26:25;98253.59;;;10.32;100.00
70815;BME280;58428;49.478;10.986;2022-12-24T08:28:52;98242.25;;;10.39;100.00
70815;BME280;58428;49.478;10.986;2022-12-24T08:31:17;98240.69;;;10.38;100.00
70815;BME280;58428;49.478;10.986;2022-12-24T08:33:43;98252.88;;;10.44;100.00
70815;BME280;58428;49.478;10.986;2022-12-24T08:36:08;98252.44;;;10.42;100.00
70815;BME280;58428;49.478;10.986;2022-12-24T08:38:34;98252.88;;;10.44;100.00
70815;BME280;58428;49.478;10.986;2022-12-24T08:40:59;98265.63;;;10.43;100.00
70815;BME280;58428;49.478;10.986;2022-12-24T08:43:26;98252.47;;;10.33;100.00
70815;BME280;58428;49.478;10.986;2022-12-24T08:45:52;98266.94;;;10.37;100.00
70815;BME280;58428;49.478;10.986;2022-12-24T08:48:19;98266.72;;;10.42;100.00
70815;BME280;58428;49.478;10.986;2022-12-24T08:50:44;98264.94;;;10.46;100.00
70815;BME280;58428;49.478;10.986;2022-12-24T08:53:11;98284.56;;;10.43;100.00
70815;BME280;58428;49.478;10.986;2022-12-24T08:55:37;98284.22;;;10.45;100.00
70815;BME280;58428;49.478;10.986;2022-12-24T08:58:03;98286.59;;;10.46;100.00
70815;BME280;58428;49.478;10.986;2022-12-24T09:00:29;98294.25;;;10.44;100.00
70815;BME280;58428;49.478;10.986;2022-12-24T09:02:55;98282.44;;;10.49;100.00
70815;BME280;58428;49.478;10.986;2022-12-24T09:05:21;98293.72;;;10.51;100.00
70815;BME280;58428;49.478;10.986;2022-12-24T09:07:47;98296.94;;;10.44;100.00
70815;BME280;58428;49.478;10.986;2022-12-24T09:10:12;98298.66;;;10.49;100.00
70815;BME280;58428;49.478;10.986;2022-12-24T09:12:38;98297.56;;;10.50;100.00
70815;BME280;58428;49.478;10.986;2022-12-24T09:15:04;98291.00;;;10.51;100.00
70815;BME280;58428;49.478;10.986;2022-12-24T09:17:35;98288.75;;;10.53;100.00
70815;BME280;58428;49.478;10.986;2022-12-24T09:20:02;98299.09;;;10.59;100.00
70815;BME280;58428;49.478;10.986;2022-12-24T09:22:29;98308.31;;;10.58;100.00
70815;BME280;58428;49.478;10.986;2022-12-24T09:24:56;98317.03;;;10.64;100.00
70815;BME280;58428;49.478;10.986;2022-12-24T09:27:22;98313.69;;;10.66;100.00
70815;BME280;58428;49.478;10.986;2022-12-24T09:29:47;98324.63;;;10.70;100.00
70815;BME280;58428;49.478;10.986;2022-12-24T09:32:13;98323.66;;;10.74;100.00
70815;BME280;58428;49.478;10.986;2022-12-24T09:34:41;98329.06;;;10.74;100.00
70815;BME280;58428;49.478;10.986;2022-12-24T09:37:07;98329.47;;;10.85;100.00
70815;BME280;58428;49.478;10.986;2022-12-24T09:39:33;98328.59;;;10.93;100.00
70815;BME280;58428;49.478;10.986;2022-12-24T09:47:36;98327.34;;;10.90;100.00
70815;BME280;58428;49.478;10.986;2022-12-24T09:50:18;98325.63;;;10.86;100.00
70815;BME280;58428;49.478;10.986;2022-12-24T09:52:46;98327.94;;;10.75;100.00
70815;BME280;58428;49.478;10.986;2022-12-24T09:58:05;98319.09;;;10.66;100.00
70815;BME280;58428;49.478;10.986;2022-12-24T10:00:37;98323.38;;;10.67;100.00
70815;BME280;58428;49.478;10.986;2022-12-24T10:03:14;98322.44;;;10.64;100.00
70815;BME280;58428;49.478;10.986;2022-12-24T10:06:16;98317.19;;;10.67;100.00
70815;BME280;58428;49.478;10.986;2022-12-24T10:11:31;98317.66;;;10.61;100.00
70815;BME280;58428;49.478;10.986;2022-12-24T10:22:50;98324.22;;;10.80;100.00
70815;BME280;58428;49.478;10.986;2022-12-24T10:25:47;98322.72;;;10.91;100.00
70815;BME280;58428;49.478;10.986;2022-12-24T10:28:17;98329.22;;;10.98;100.00
70815;BME280;58428;49.478;10.986;2022-12-24T10:30:46;98338.03;;;11.07;100.00
70815;BME280;58428;49.478;10.986;2022-12-24T10:33:18;98334.59;;;11.18;100.00
70815;BME280;58428;49.478;10.986;2022-12-24T10:35:49;98342.22;;;11.25;100.00
70815;BME280;58428;49.478;10.986;2022-12-24T10:38:17;98349.06;;;11.42;100.00
70815;BME280;58428;49.478;10.986;2022-12-24T10:40:45;98327.78;;;11.53;100.00
70815;BME280;58428;49.478;10.986;2022-12-24T10:43:34;98332.88;;;11.54;100.00
70815;BME280;58428;49.478;10.986;2022-12-24T10:46:29;98336.84;;;11.57;100.00
70815;BME280;58428;49.478;10.986;2022-12-24T10:49:14;98341.06;;;11.78;100.00
70815;BME280;58428;49.478;10.986;2022-12-24T10:51:46;98343.81;;;11.90;100.00
70815;BME280;58428;49.478;10.986;2022-12-24T10:54:15;98353.78;;;11.98;100.00
70815;BME280;58428;49.478;10.986;2022-12-24T10:56:43;98348.56;;;11.93;100.00
70815;BME280;58428;49.478;10.986;2022-12-24T11:02:02;98357.94;;;11.83;100.00
70815;BME280;58428;49.478;10.986;2022-12-24T11:04:29;98366.06;;;11.83;100.00
70815;BME280;58428;49.478;10.986;2022-12-24T11:06:57;98358.72;;;11.84;100.00
70815;BME280;58428;49.478;10.986;2022-12-24T11:11:52;98360.50;;;11.80;100.00
70815;BME280;58428;49.478;10.986;2022-12-24T11:14:20;98364.91;;;11.84;100.00
70815;BME280;58428;49.478;10.986;2022-12-24T11:16:52;98359.88;;;11.95;100.00
70815;BME280;58428;49.478;10.986;2022-12-24T11:19:29;98363.50;;;11.99;100.00
70815;BME280;58428;49.478;10.986;2022-12-24T11:22:05;98354.69;;;12.02;100.00
70815;BME280;58428;49.478;10.986;2022-12-24T11:24:36;98352.22;;;12.20;100.00
70815;BME280;58428;49.478;10.986;2022-12-24T11:29:51;98352.34;;;12.59;100.00
70815;BME280;58428;49.478;10.986;2022-12-24T11:32:21;98356.44;;;12.65;100.00
70815;BME280;58428;49.478;10.986;2022-12-24T11:34:47;98344.78;;;12.65;100.00
70815;BME280;58428;49.478;10.986;2022-12-24T11:40:04;98350.34;;;12.56;100.00
70815;BME280;58428;49.478;10.986;2022-12-24T11:42:35;98349.31;;;12.49;100.00
70815;BME280;58428;49.478;10.986;2022-12-24T11:45:05;98352.38;;;12.48;100.00
70815;BME280;58428;49.478;10.986;2022-12-24T11:47:41;98349.78;;;12.51;100.00
70815;BME280;58428;49.478;10.986;2022-12-24T11:50:32;98341.38;;;12.56;100.00
70815;BME280;58428;49.478;10.986;2022-12-24T11:53:04;98342.53;;;12.55;100.00
70815;BME280;58428;49.478;10.986;2022-12-24T11:55:44;98341.63;;;12.51;100.00
70815;BME280;58428;49.478;10.986;2022-12-24T11:58:52;98344.00;;;12.52;100.00
70815;BME280;58428;49.478;10.986;2022-12-24T12:01:34;98349.97;;;12.58;100.00
70815;BME280;58428;49.478;10.986;2022-12-24T12:04:16;98354.75;;;12.61;100.00
70815;BME280;58428;49.478;10.986;2022-12-24T12:06:51;98343.22;;;12.64;100.00
70815;BME280;58428;49.478;10.986;2022-12-24T12:09:28;98361.84;;;12.65;100.00
70815;BME280;58428;49.478;10.986;2022-12-24T12:12:04;98357.13;;;12.62;100.00
70815;BME280;58428;49.478;10.986;2022-12-24T12:14:43;98361.28;;;12.60;100.00
70815;BME280;58428;49.478;10.986;2022-12-24T12:19:59;98355.84;;;12.48;100.00
70815;BME280;58428;49.478;10.986;2022-12-24T12:22:37;98349.19;;;12.46;100.00
70815;BME280;58428;49.478;10.986;2022-12-24T12:25:20;98363.22;;;12.48;100.00
70815;BME280;58428;49.478;10.986;2022-12-24T12:27:50;98352.38;;;12.36;100.00
70815;BME280;58428;49.478;10.986;2022-12-24T12:30:19;98369.41;;;12.24;100.00
70815;BME280;58428;49.478;10.986;2022-12-24T12:33:14;98364.56;;;12.30;100.00
70815;BME280;58428;49.478;10.986;2022-12-24T12:35:43;98369.78;;;12.47;100.00
70815;BME280;58428;49.478;10.986;2022-12-24T12:38:22;98369.88;;;12.50;100.00
70815;BME280;58428;49.478;10.986;2022-12-24T12:55:41;98367.03;;;12.35;100.00
70815;BME280;58428;49.478;10.986;2022-12-24T12:58:34;98361.28;;;12.24;100.00
70815;BME280;58428;49.478;10.986;2022-12-24T13:01:14;98372.44;;;12.11;100.00
70815;BME280;58428;49.478;10.986;2022-12-24T13:20:47;98379.31;;;11.65;100.00
70815;BME280;58428;49.478;10.986;2022-12-24T13:23:16;98383.16;;;11.64;100.00
70815;BME280;58428;49.478;10.986;2022-12-24T13:25:50;98384.28;;;11.63;100.00
70815;BME280;58428;49.478;10.986;2022-12-24T13:36:09;98389.09;;;11.37;100.00
70815;BME280;58428;49.478;10.986;2022-12-24T13:38:50;98387.19;;;11.38;100.00
70815;BME280;58428;49.478;10.986;2022-12-24T13:49:44;98402.50;;;11.34;100.00
70815;BME280;58428;49.478;10.986;2022-12-24T13:52:19;98399.94;;;11.37;100.00
70815;BME280;58428;49.478;10.986;2022-12-24T13:57:28;98393.72;;;11.37;100.00
70815;BME280;58428;49.478;10.986;2022-12-24T13:59:58;98402.97;;;11.36;100.00
70815;BME280;58428;49.478;10.986;2022-12-24T14:02:26;98411.88;;;11.36;100.00
70815;BME280;58428;49.478;10.986;2022-12-24T14:04:59;98410.38;;;11.27;100.00
70815;BME280;58428;49.478;10.986;2022-12-24T14:07:30;98404.81;;;11.23;100.00
70815;BME280;58428;49.478;10.986;2022-12-24T14:09:56;98412.63;;;11.25;100.00
70815;BME280;58428;49.478;10.986;2022-12-24T14:12:47;98407.72;;;11.18;100.00
70815;BME280;58428;49.478;10.986;2022-12-24T14:18:26;98403.94;;;11.11;100.00
70815;BME280;58428;49.478;10.986;2022-12-24T14:20:59;98405.72;;;11.07;100.00
70815;BME280;58428;49.478;10.986;2022-12-24T14:23:51;98413.25;;;11.02;100.00
70815;BME280;58428;49.478;10.986;2022-12-24T14:26:27;98407.72;;;10.98;100.00
70815;BME280;58428;49.478;10.986;2022-12-24T14:29:25;98407.56;;;10.95;100.00
70815;BME280;58428;49.478;10.986;2022-12-24T14:31:54;98410.47;;;10.90;100.00
70815;BME280;58428;49.478;10.986;2022-12-24T14:34:20;98406.50;;;10.87;100.00
70815;BME280;58428;49.478;10.986;2022-12-24T14:36:46;98422.94;;;10.82;100.00
70815;BME280;58428;49.478;10.986;2022-12-24T14:39:42;98441.41;;;10.80;100.00
70815;BME280;58428;49.478;10.986;2022-12-24T14:43:23;98434.72;;;10.78;100.00
70815;BME280;58428;49.478;10.986;2022-12-24T14:48:18;98437.69;;;10.65;100.00
70815;BME280;58428;49.478;10.986;2022-12-24T14:56:34;98448.88;;;10.46;100.00
70815;BME280;58428;49.478;10.986;2022-12-24T14:59:13;98439.19;;;10.45;100.00
70815;BME280;58428;49.478;10.986;2022-12-24T15:01:39;98440.97;;;10.41;100.00